sensor_id;sensor_type;location;lat;lon;timestamp;pressure;altitude;pressure_sealevel;temperature;humidity
64739;BME280;51175;51.186;0.276;2023-02-10T00:00:24;103297.09;;;9.90;63.09
64739;BME280;51175;51.186;0.276;2023-02-10T00:00:54;103305.81;;;9.91;63.03
64739;BME280;51175;51.186;0.276;2023-02-10T00:01:26;103298.06;;;9.89;63.00
64739;BME280;51175;51.186;0.276;2023-02-10T00:01:57;103303.34;;;9.89;62.95
64739;BME280;51175;51.186;0.276;2023-02-10T00:02:28;103299.72;;;9.90;63.04
64739;BME280;51175;51.186;0.276;2023-02-10T00:02:59;103299.72;;;9.90;63.09
64739;BME280;51175;51.186;0.276;2023-02-10T00:03:30;103295.44;;;9.89;63.06
64739;BME280;51175;51.186;0.276;2023-02-10T00:04:00;103296.44;;;9.88;62.97
64739;BME280;51175;51.186;0.276;2023-02-10T00:04:31;103295.59;;;9.88;63.02
64739;BME280;51175;51.186;0.276;2023-02-10T00:05:01;103300.88;;;9.88;63.02
64739;BME280;51175;51.186;0.276;2023-02-10T00:05:31;103295.59;;;9.88;62.89
64739;BME280;51175;51.186;0.276;2023-02-10T00:06:03;103294.81;;;9.87;62.85
64739;BME280;51175;51.186;0.276;2023-02-10T00:06:34;103299.25;;;9.87;62.90
64739;BME280;51175;51.186;0.276;2023-02-10T00:07:04;103300.09;;;9.87;62.77
64739;BME280;51175;51.186;0.276;2023-02-10T00:07:35;103301.06;;;9.86;62.81
64739;BME280;51175;51.186;0.276;2023-02-10T00:08:05;103300.28;;;9.86;62.71
64739;BME280;51175;51.186;0.276;2023-02-10T00:08:35;103310.84;;;9.86;62.77
64739;BME280;51175;51.186;0.276;2023-02-10T00:09:06;103301.91;;;9.87;62.85
64739;BME280;51175;51.186;0.276;2023-02-10T00:09:37;103301.25;;;9.85;62.83
64739;BME280;51175;51.186;0.276;2023-02-10T00:10:07;103302.09;;;9.85;62.84
64739;BME280;51175;51.186;0.276;2023-02-10T00:10:38;103298.63;;;9.85;62.84
64739;BME280;51175;51.186;0.276;2023-02-10T00:11:10;103298.63;;;9.85;62.89
64739;BME280;51175;51.186;0.276;2023-02-10T00:11:41;103295.19;;;9.84;62.91
64739;BME280;51175;51.186;0.276;2023-02-10T00:12:26;103293.53;;;9.83;62.84
64739;BME280;51175;51.186;0.276;2023-02-10T00:12:57;103298.81;;;9.83;63.04
64739;BME280;51175;51.186;0.276;2023-02-10T00:13:27;103298.81;;;9.83;62.84
64739;BME280;51175;51.186;0.276;2023-02-10T00:13:58;103295.38;;;9.83;62.87
64739;BME280;51175;51.186;0.276;2023-02-10T00:14:29;103298.00;;;9.83;62.92
64739;BME280;51175;51.186;0.276;2023-02-10T00:15:00;103296.34;;;9.81;62.85
64739;BME280;51175;51.186;0.276;2023-02-10T00:15:30;103299.00;;;9.81;62.84
64739;BME280;51175;51.186;0.276;2023-02-10T00:16:02;103302.66;;;9.80;62.90
64739;BME280;51175;51.186;0.276;2023-02-10T00:16:34;103297.38;;;9.80;62.91
64739;BME280;51175;51.186;0.276;2023-02-10T00:17:04;103297.56;;;9.79;62.91
64739;BME280;51175;51.186;0.276;2023-02-10T00:17:35;103292.28;;;9.79;62.95
64739;BME280;51175;51.186;0.276;2023-02-10T00:18:05;103294.09;;;9.78;62.89
64739;BME280;51175;51.186;0.276;2023-02-10T00:18:36;103297.56;;;9.79;62.83
64739;BME280;51175;51.186;0.276;2023-02-10T00:19:06;103293.28;;;9.78;62.90
64739;BME280;51175;51.186;0.276;2023-02-10T00:19:36;103295.94;;;9.78;62.81
64739;BME280;51175;51.186;0.276;2023-02-10T00:20:07;103300.38;;;9.77;62.72
64739;BME280;51175;51.186;0.276;2023-02-10T00:20:38;103296.09;;;9.76;62.69
64739;BME280;51175;51.186;0.276;2023-02-10T00:21:16;103294.25;;;9.77;62.71
64739;BME280;51175;51.186;0.276;2023-02-10T00:21:46;103288.19;;;9.76;62.74
64739;BME280;51175;51.186;0.276;2023-02-10T00:22:17;103297.09;;;9.75;62.79
64739;BME280;51175;51.186;0.276;2023-02-10T00:22:47;103293.66;;;9.75;62.80
64739;BME280;51175;51.186;0.276;2023-02-10T00:23:17;103294.44;;;9.75;62.82
64739;BME280;51175;51.186;0.276;2023-02-10T00:23:48;103292.81;;;9.74;62.84
64739;BME280;51175;51.186;0.276;2023-02-10T00:24:19;103291.81;;;9.75;63.01
64739;BME280;51175;51.186;0.276;2023-02-10T00:24:50;103296.28;;;9.75;62.77
64739;BME280;51175;51.186;0.276;2023-02-10T00:25:20;103290.00;;;9.76;62.81
64739;BME280;51175;51.186;0.276;2023-02-10T00:25:51;103297.09;;;9.75;62.76
64739;BME280;51175;51.186;0.276;2023-02-10T00:26:21;103298.94;;;9.75;62.68
64739;BME280;51175;51.186;0.276;2023-02-10T00:26:52;103288.38;;;9.75;62.64
64739;BME280;51175;51.186;0.276;2023-02-10T00:27:22;103289.34;;;9.74;62.59
64739;BME280;51175;51.186;0.276;2023-02-10T00:27:54;103286.72;;;9.74;62.59
64739;BME280;51175;51.186;0.276;2023-02-10T00:28:24;103288.38;;;9.75;62.68
64739;BME280;51175;51.186;0.276;2023-02-10T00:28:55;103288.56;;;9.73;62.52
64739;BME280;51175;51.186;0.276;2023-02-10T00:29:25;103291.19;;;9.73;62.29
64739;BME280;51175;51.186;0.276;2023-02-10T00:29:56;103285.09;;;9.73;62.57
64739;BME280;51175;51.186;0.276;2023-02-10T00:30:26;103294.81;;;9.72;62.50
64739;BME280;51175;51.186;0.276;2023-02-10T00:30:57;103278.19;;;9.72;62.64
64739;BME280;51175;51.186;0.276;2023-02-10T00:31:27;103290.56;;;9.71;62.50
64739;BME280;51175;51.186;0.276;2023-02-10T00:31:58;103288.94;;;9.70;62.46
64739;BME280;51175;51.186;0.276;2023-02-10T00:32:28;103288.09;;;9.69;62.47
64739;BME280;51175;51.186;0.276;2023-02-10T00:32:58;103286.47;;;9.68;62.48
64739;BME280;51175;51.186;0.276;2023-02-10T00:33:29;103290.09;;;9.67;62.53
64739;BME280;51175;51.186;0.276;2023-02-10T00:33:59;103285.66;;;9.68;62.39
64739;BME280;51175;51.186;0.276;2023-02-10T00:34:30;103294.56;;;9.67;62.45
64739;BME280;51175;51.186;0.276;2023-02-10T00:35:00;103285.81;;;9.66;62.46
64739;BME280;51175;51.186;0.276;2023-02-10T00:35:31;103281.53;;;9.65;62.61
64739;BME280;51175;51.186;0.276;2023-02-10T00:36:06;103285.81;;;9.66;62.52
64739;BME280;51175;51.186;0.276;2023-02-10T00:36:37;103286.81;;;9.65;62.48
64739;BME280;51175;51.186;0.276;2023-02-10T00:37:07;103291.09;;;9.66;62.42
64739;BME280;51175;51.186;0.276;2023-02-10T00:37:38;103289.44;;;9.65;62.44
64739;BME280;51175;51.186;0.276;2023-02-10T00:38:08;103287.63;;;9.66;62.52
64739;BME280;51175;51.186;0.276;2023-02-10T00:38:39;103279.09;;;9.64;62.56
64739;BME280;51175;51.186;0.276;2023-02-10T00:39:15;103286.00;;;9.65;62.48
64739;BME280;51175;51.186;0.276;2023-02-10T00:39:46;103279.91;;;9.64;62.57
64739;BME280;51175;51.186;0.276;2023-02-10T00:40:17;103286.81;;;9.65;62.51
64739;BME280;51175;51.186;0.276;2023-02-10T00:40:47;103278.28;;;9.63;62.50
64739;BME280;51175;51.186;0.276;2023-02-10T00:41:19;103280.91;;;9.63;62.46
64739;BME280;51175;51.186;0.276;2023-02-10T00:41:50;103284.53;;;9.62;62.76
64739;BME280;51175;51.186;0.276;2023-02-10T00:42:20;103277.47;;;9.63;62.81
64739;BME280;51175;51.186;0.276;2023-02-10T00:42:51;103276.63;;;9.62;62.49
64739;BME280;51175;51.186;0.276;2023-02-10T00:43:21;103274.81;;;9.63;62.43
64739;BME280;51175;51.186;0.276;2023-02-10T00:43:52;103282.72;;;9.63;62.55
64739;BME280;51175;51.186;0.276;2023-02-10T00:44:22;103275.66;;;9.63;62.42
64739;BME280;51175;51.186;0.276;2023-02-10T00:44:53;103281.91;;;9.62;62.53
64739;BME280;51175;51.186;0.276;2023-02-10T00:45:23;103275.66;;;9.63;62.39
64739;BME280;51175;51.186;0.276;2023-02-10T00:45:53;103278.28;;;9.63;62.43
64739;BME280;51175;51.186;0.276;2023-02-10T00:46:24;103282.72;;;9.63;62.41
64739;BME280;51175;51.186;0.276;2023-02-10T00:46:54;103280.91;;;9.63;62.28
64739;BME280;51175;51.186;0.276;2023-02-10T00:47:25;103286.19;;;9.63;62.33
64739;BME280;51175;51.186;0.276;2023-02-10T00:47:56;103287.00;;;9.64;62.43
64739;BME280;51175;51.186;0.276;2023-02-10T00:48:26;103286.19;;;9.63;62.35
64739;BME280;51175;51.186;0.276;2023-02-10T00:48:56;103289.81;;;9.62;62.22
64739;BME280;51175;51.186;0.276;2023-02-10T00:49:27;103288.84;;;9.63;62.09
64739;BME280;51175;51.186;0.276;2023-02-10T00:49:57;103287.19;;;9.62;62.06
64739;BME280;51175;51.186;0.276;2023-02-10T00:50:27;103288.19;;;9.61;62.20
64739;BME280;51175;51.186;0.276;2023-02-10T00:50:58;103285.56;;;9.61;62.19
64739;BME280;51175;51.186;0.276;2023-02-10T00:51:28;103288.56;;;9.58;62.30
64739;BME280;51175;51.186;0.276;2023-02-10T00:51:59;103285.91;;;9.58;62.22
64739;BME280;51175;51.186;0.276;2023-02-10T00:52:29;103280.66;;;9.58;62.27
64739;BME280;51175;51.186;0.276;2023-02-10T00:52:59;103286.09;;;9.56;62.21
64739;BME280;51175;51.186;0.276;2023-02-10T00:53:30;103292.41;;;9.55;62.17
64739;BME280;51175;51.186;0.276;2023-02-10T00:54:00;103284.47;;;9.55;62.25
64739;BME280;51175;51.186;0.276;2023-02-10T00:54:31;103283.66;;;9.55;62.16
64739;BME280;51175;51.186;0.276;2023-02-10T00:55:01;103282.81;;;9.54;62.14
64739;BME280;51175;51.186;0.276;2023-02-10T00:55:32;103286.47;;;9.53;62.36
64739;BME280;51175;51.186;0.276;2023-02-10T00:56:03;103281.19;;;9.53;62.27
64739;BME280;51175;51.186;0.276;2023-02-10T00:56:33;103287.31;;;9.54;62.39
64739;BME280;51175;51.186;0.276;2023-02-10T00:57:04;103280.56;;;9.51;62.31
64739;BME280;51175;51.186;0.276;2023-02-10T00:57:34;103283.19;;;9.51;62.28
64739;BME280;51175;51.186;0.276;2023-02-10T00:58:04;103280.56;;;9.51;62.38
64739;BME280;51175;51.186;0.276;2023-02-10T00:58:35;103283.19;;;9.51;62.25
64739;BME280;51175;51.186;0.276;2023-02-10T00:59:06;103277.91;;;9.51;62.46
64739;BME280;51175;51.186;0.276;2023-02-10T00:59:36;103282.38;;;9.51;62.33
64739;BME280;51175;51.186;0.276;2023-02-10T01:00:07;103280.56;;;9.51;62.31
64739;BME280;51175;51.186;0.276;2023-02-10T01:00:37;103285.03;;;9.51;62.53
64739;BME280;51175;51.186;0.276;2023-02-10T01:01:08;103280.72;;;9.50;62.30
64739;BME280;51175;51.186;0.276;2023-02-10T01:01:38;103278.09;;;9.50;62.14
64739;BME280;51175;51.186;0.276;2023-02-10T01:02:08;103282.56;;;9.49;62.37
64739;BME280;51175;51.186;0.276;2023-02-10T01:02:39;103283.38;;;9.50;62.36
64739;BME280;51175;51.186;0.276;2023-02-10T01:03:09;103284.38;;;9.49;62.27
64739;BME280;51175;51.186;0.276;2023-02-10T01:03:40;103285.22;;;9.49;62.38
64739;BME280;51175;51.186;0.276;2023-02-10T01:04:11;103287.03;;;9.49;62.44
64739;BME280;51175;51.186;0.276;2023-02-10T01:04:42;103287.03;;;9.49;62.38
64739;BME280;51175;51.186;0.276;2023-02-10T01:05:12;103293.13;;;9.49;62.22
64739;BME280;51175;51.186;0.276;2023-02-10T01:05:42;103288.03;;;9.48;62.33
64739;BME280;51175;51.186;0.276;2023-02-10T01:06:15;103292.47;;;9.47;62.32
64739;BME280;51175;51.186;0.276;2023-02-10T01:06:45;103292.47;;;9.47;62.31
64739;BME280;51175;51.186;0.276;2023-02-10T01:07:16;103304.66;;;9.48;62.17
64739;BME280;51175;51.186;0.276;2023-02-10T01:07:46;103292.47;;;9.47;62.31
64739;BME280;51175;51.186;0.276;2023-02-10T01:08:17;103289.84;;;9.47;62.43
64739;BME280;51175;51.186;0.276;2023-02-10T01:08:48;103290.66;;;9.48;62.24
64739;BME280;51175;51.186;0.276;2023-02-10T01:09:18;103293.31;;;9.48;62.28
64739;BME280;51175;51.186;0.276;2023-02-10T01:09:49;103289.66;;;9.49;61.95
64739;BME280;51175;51.186;0.276;2023-02-10T01:10:19;103288.84;;;9.48;62.25
64739;BME280;51175;51.186;0.276;2023-02-10T01:11:01;103281.75;;;9.49;62.08
64739;BME280;51175;51.186;0.276;2023-02-10T01:11:31;103288.84;;;9.48;62.05
64739;BME280;51175;51.186;0.276;2023-02-10T01:12:02;103296.75;;;9.48;62.07
64739;BME280;51175;51.186;0.276;2023-02-10T01:12:32;103285.41;;;9.48;62.19
64739;BME280;51175;51.186;0.276;2023-02-10T01:13:05;103289.00;;;9.47;62.12
64739;BME280;51175;51.186;0.276;2023-02-10T01:13:37;103286.38;;;9.47;62.42
64739;BME280;51175;51.186;0.276;2023-02-10T01:14:08;103286.38;;;9.47;62.37
64739;BME280;51175;51.186;0.276;2023-02-10T01:14:38;103292.66;;;9.46;62.16
64739;BME280;51175;51.186;0.276;2023-02-10T01:15:09;103289.19;;;9.45;62.14
64739;BME280;51175;51.186;0.276;2023-02-10T01:15:44;103286.75;;;9.43;62.11
64739;BME280;51175;51.186;0.276;2023-02-10T01:16:17;103283.31;;;9.43;62.08
64739;BME280;51175;51.186;0.276;2023-02-10T01:16:47;103288.59;;;9.43;62.03
64739;BME280;51175;51.186;0.276;2023-02-10T01:17:18;103291.41;;;9.41;61.95
64739;BME280;51175;51.186;0.276;2023-02-10T01:17:48;103287.09;;;9.40;62.04
64739;BME280;51175;51.186;0.276;2023-02-10T01:18:19;103290.56;;;9.41;62.09
64739;BME280;51175;51.186;0.276;2023-02-10T01:18:49;103284.47;;;9.40;62.16
64739;BME280;51175;51.186;0.276;2023-02-10T01:19:20;103285.47;;;9.39;62.18
64739;BME280;51175;51.186;0.276;2023-02-10T01:19:50;103290.75;;;9.39;62.12
64739;BME280;51175;51.186;0.276;2023-02-10T01:20:21;103282.00;;;9.39;62.09
64739;BME280;51175;51.186;0.276;2023-02-10T01:20:52;103280.38;;;9.38;62.12
64739;BME280;51175;51.186;0.276;2023-02-10T01:21:22;103291.78;;;9.38;62.23
64739;BME280;51175;51.186;0.276;2023-02-10T01:21:52;103283.84;;;9.38;62.06
64739;BME280;51175;51.186;0.276;2023-02-10T01:22:23;103288.31;;;9.38;62.06
64739;BME280;51175;51.186;0.276;2023-02-10T01:22:53;103288.31;;;9.38;62.09
64739;BME280;51175;51.186;0.276;2023-02-10T01:23:24;103287.47;;;9.37;62.03
64739;BME280;51175;51.186;0.276;2023-02-10T01:23:55;103288.31;;;9.38;62.13
64739;BME280;51175;51.186;0.276;2023-02-10T01:24:25;103285.66;;;9.38;62.13
64739;BME280;51175;51.186;0.276;2023-02-10T01:24:56;103285.66;;;9.38;61.96
64739;BME280;51175;51.186;0.276;2023-02-10T01:25:26;103283.03;;;9.38;62.13
64739;BME280;51175;51.186;0.276;2023-02-10T01:25:59;103280.38;;;9.38;62.16
64739;BME280;51175;51.186;0.276;2023-02-10T01:26:29;103281.22;;;9.38;61.99
64739;BME280;51175;51.186;0.276;2023-02-10T01:26:59;103284.66;;;9.39;61.92
64739;BME280;51175;51.186;0.276;2023-02-10T01:27:30;103279.56;;;9.37;62.00
64739;BME280;51175;51.186;0.276;2023-02-10T01:28:01;103283.03;;;9.38;61.98
64739;BME280;51175;51.186;0.276;2023-02-10T01:28:32;103284.84;;;9.37;61.79
64739;BME280;51175;51.186;0.276;2023-02-10T01:29:02;103284.03;;;9.37;61.85
64739;BME280;51175;51.186;0.276;2023-02-10T01:29:33;103282.19;;;9.37;61.74
64739;BME280;51175;51.186;0.276;2023-02-10T01:30:04;103284.22;;;9.35;61.77
64739;BME280;51175;51.186;0.276;2023-02-10T01:30:35;103279.91;;;9.34;61.75
64739;BME280;51175;51.186;0.276;2023-02-10T01:31:07;103285.19;;;9.34;61.68
64739;BME280;51175;51.186;0.276;2023-02-10T01:31:37;103282.75;;;9.32;61.83
64739;BME280;51175;51.186;0.276;2023-02-10T01:32:08;103283.56;;;9.33;61.82
64739;BME280;51175;51.186;0.276;2023-02-10T01:32:38;103278.47;;;9.31;61.77
64739;BME280;51175;51.186;0.276;2023-02-10T01:33:08;103284.72;;;9.30;61.88
64739;BME280;51175;51.186;0.276;2023-02-10T01:33:39;103283.94;;;9.30;61.73
64739;BME280;51175;51.186;0.276;2023-02-10T01:34:10;103283.09;;;9.29;61.74
64739;BME280;51175;51.186;0.276;2023-02-10T01:34:41;103287.56;;;9.29;61.76
64739;BME280;51175;51.186;0.276;2023-02-10T01:35:12;103282.47;;;9.27;61.91
64739;BME280;51175;51.186;0.276;2023-02-10T01:35:42;103287.56;;;9.29;61.91
64739;BME280;51175;51.186;0.276;2023-02-10T01:36:15;103289.56;;;9.27;61.78
64739;BME280;51175;51.186;0.276;2023-02-10T01:36:45;103296.47;;;9.28;61.93
64739;BME280;51175;51.186;0.276;2023-02-10T01:37:16;103292.22;;;9.27;61.79
64739;BME280;51175;51.186;0.276;2023-02-10T01:37:47;103290.56;;;9.26;61.75
64739;BME280;51175;51.186;0.276;2023-02-10T01:38:17;103292.41;;;9.25;61.84
64739;BME280;51175;51.186;0.276;2023-02-10T01:38:48;103291.56;;;9.25;62.28
64739;BME280;51175;51.186;0.276;2023-02-10T01:39:18;103288.09;;;9.24;61.74
64739;BME280;51175;51.186;0.276;2023-02-10T01:39:49;103288.28;;;9.23;61.78
64739;BME280;51175;51.186;0.276;2023-02-10T01:40:20;103290.72;;;9.24;61.84
64739;BME280;51175;51.186;0.276;2023-02-10T01:40:50;103294.19;;;9.25;61.93
64739;BME280;51175;51.186;0.276;2023-02-10T01:41:22;103289.75;;;9.25;61.80
64739;BME280;51175;51.186;0.276;2023-02-10T01:41:53;103293.19;;;9.26;61.90
64739;BME280;51175;51.186;0.276;2023-02-10T01:42:23;103287.75;;;9.27;61.59
64739;BME280;51175;51.186;0.276;2023-02-10T01:42:53;103286.75;;;9.28;61.66
64739;BME280;51175;51.186;0.276;2023-02-10T01:43:24;103284.91;;;9.29;61.69
64739;BME280;51175;51.186;0.276;2023-02-10T01:45:17;103281.28;;;9.30;61.57
64739;BME280;51175;51.186;0.276;2023-02-10T01:45:48;103280.47;;;9.29;61.41
64739;BME280;51175;51.186;0.276;2023-02-10T01:46:18;103282.28;;;9.29;61.74
64739;BME280;51175;51.186;0.276;2023-02-10T01:46:49;103285.09;;;9.27;61.55
64739;BME280;51175;51.186;0.276;2023-02-10T01:47:19;103279.03;;;9.27;61.60
64739;BME280;51175;51.186;0.276;2023-02-10T01:47:54;103286.94;;;9.27;61.47
64739;BME280;51175;51.186;0.276;2023-02-10T01:48:25;103285.09;;;9.27;61.43
64739;BME280;51175;51.186;0.276;2023-02-10T01:48:58;103274.56;;;9.27;61.30
64739;BME280;51175;51.186;0.276;2023-02-10T01:49:33;103280.66;;;9.28;61.39
64739;BME280;51175;51.186;0.276;2023-02-10T01:50:09;103275.56;;;9.26;61.36
64739;BME280;51175;51.186;0.276;2023-02-10T01:50:44;103277.38;;;9.26;61.51
64739;BME280;51175;51.186;0.276;2023-02-10T01:51:19;103277.38;;;9.26;61.24
64739;BME280;51175;51.186;0.276;2023-02-10T01:52:07;103270.47;;;9.25;61.45
64739;BME280;51175;51.186;0.276;2023-02-10T01:52:40;103281.00;;;9.25;61.34
64739;BME280;51175;51.186;0.276;2023-02-10T01:53:12;103281.00;;;9.25;61.44
64739;BME280;51175;51.186;0.276;2023-02-10T01:53:43;103277.72;;;9.23;61.40
64739;BME280;51175;51.186;0.276;2023-02-10T01:54:18;103278.75;;;9.22;61.58
64739;BME280;51175;51.186;0.276;2023-02-10T01:55:01;103282.22;;;9.22;61.56
64739;BME280;51175;51.186;0.276;2023-02-10T01:55:35;103281.38;;;9.22;61.55
64739;BME280;51175;51.186;0.276;2023-02-10T01:56:06;103278.94;;;9.20;61.50
64739;BME280;51175;51.186;0.276;2023-02-10T01:56:37;103279.09;;;9.18;61.50
64739;BME280;51175;51.186;0.276;2023-02-10T01:57:08;103284.38;;;9.18;61.44
64739;BME280;51175;51.186;0.276;2023-02-10T01:57:42;103283.72;;;9.16;61.44
64739;BME280;51175;51.186;0.276;2023-02-10T01:58:15;103282.09;;;9.15;61.39
64739;BME280;51175;51.186;0.276;2023-02-10T01:58:47;103277.84;;;9.14;61.44
64739;BME280;51175;51.186;0.276;2023-02-10T01:59:19;103272.75;;;9.13;61.55
64739;BME280;51175;51.186;0.276;2023-02-10T01:59:51;103271.72;;;9.14;61.63
64739;BME280;51175;51.186;0.276;2023-02-10T02:00:24;103270.09;;;9.13;61.61
64739;BME280;51175;51.186;0.276;2023-02-10T02:00:55;103278.03;;;9.13;61.61
64739;BME280;51175;51.186;0.276;2023-02-10T02:01:25;103277.19;;;9.12;61.48
64739;BME280;51175;51.186;0.276;2023-02-10T02:01:56;103284.91;;;9.14;61.63
64739;BME280;51175;51.186;0.276;2023-02-10T02:02:27;103276.19;;;9.13;61.59
64739;BME280;51175;51.186;0.276;2023-02-10T02:02:59;103269.09;;;9.14;61.64
64739;BME280;51175;51.186;0.276;2023-02-10T02:03:30;103275.19;;;9.14;61.20
64739;BME280;51175;51.186;0.276;2023-02-10T02:04:02;103276.00;;;9.15;61.63
64739;BME280;51175;51.186;0.276;2023-02-10T02:04:54;103273.19;;;9.16;61.42
64739;BME280;51175;51.186;0.276;2023-02-10T02:05:36;103272.38;;;9.16;61.59
64739;BME280;51175;51.186;0.276;2023-02-10T02:06:08;103275.19;;;9.14;61.49
64739;BME280;51175;51.186;0.276;2023-02-10T02:06:38;103273.38;;;9.15;61.46
64739;BME280;51175;51.186;0.276;2023-02-10T02:07:09;103265.63;;;9.13;61.52
64739;BME280;51175;51.186;0.276;2023-02-10T02:07:39;103269.94;;;9.14;61.63
64739;BME280;51175;51.186;0.276;2023-02-10T02:08:20;103269.94;;;9.14;61.55
64739;BME280;51175;51.186;0.276;2023-02-10T02:08:52;103265.03;;;9.11;61.73
64739;BME280;51175;51.186;0.276;2023-02-10T02:09:22;103264.19;;;9.11;61.58
64739;BME280;51175;51.186;0.276;2023-02-10T02:09:55;103267.00;;;9.09;61.40
64739;BME280;51175;51.186;0.276;2023-02-10T02:10:37;103271.28;;;9.10;61.48
64739;BME280;51175;51.186;0.276;2023-02-10T02:11:21;103269.66;;;9.09;61.63
64739;BME280;51175;51.186;0.276;2023-02-10T02:11:57;103268.00;;;9.08;61.41
64739;BME280;51175;51.186;0.276;2023-02-10T02:14:34;103270.00;;;9.06;61.62
64739;BME280;51175;51.186;0.276;2023-02-10T02:15:12;103265.75;;;9.05;61.51
64739;BME280;51175;51.186;0.276;2023-02-10T02:15:50;103266.53;;;9.05;61.55
64739;BME280;51175;51.186;0.276;2023-02-10T02:17:25;103260.47;;;9.05;61.39
64739;BME280;51175;51.186;0.276;2023-02-10T02:18:32;103258.63;;;9.05;61.32
64739;BME280;51175;51.186;0.276;2023-02-10T02:21:16;103258.81;;;9.04;61.75
64739;BME280;51175;51.186;0.276;2023-02-10T02:23:03;103258.19;;;9.02;61.42
64739;BME280;51175;51.186;0.276;2023-02-10T02:24:06;103263.47;;;9.02;61.45
64739;BME280;51175;51.186;0.276;2023-02-10T02:29:49;103266.34;;;8.92;61.72
64739;BME280;51175;51.186;0.276;2023-02-10T02:30:30;103258.63;;;8.90;61.64
64739;BME280;51175;51.186;0.276;2023-02-10T02:32:21;103271.81;;;8.90;61.50
64739;BME280;51175;51.186;0.276;2023-02-10T02:32:59;103274.63;;;8.89;61.59
64739;BME280;51175;51.186;0.276;2023-02-10T02:33:38;103273.78;;;8.88;61.79
64739;BME280;51175;51.186;0.276;2023-02-10T02:34:16;103271.34;;;8.87;61.46
64739;BME280;51175;51.186;0.276;2023-02-10T02:35:00;103275.97;;;8.85;61.67
64739;BME280;51175;51.186;0.276;2023-02-10T02:35:39;103274.31;;;8.84;61.61
64739;BME280;51175;51.186;0.276;2023-02-10T02:36:13;103277.13;;;8.82;61.78
64739;BME280;51175;51.186;0.276;2023-02-10T02:36:54;103273.84;;;8.80;61.93
64739;BME280;51175;51.186;0.276;2023-02-10T02:37:28;103277.50;;;8.79;61.84
64739;BME280;51175;51.186;0.276;2023-02-10T02:37:59;103277.50;;;8.79;61.87
64739;BME280;51175;51.186;0.276;2023-02-10T02:38:30;103282.78;;;8.79;61.80
64739;BME280;51175;51.186;0.276;2023-02-10T02:39:03;103282.13;;;8.77;61.77
64739;BME280;51175;51.186;0.276;2023-02-10T02:39:34;103277.69;;;8.77;61.75
64739;BME280;51175;51.186;0.276;2023-02-10T02:40:05;103273.41;;;8.76;61.79
64739;BME280;51175;51.186;0.276;2023-02-10T02:40:35;103277.03;;;8.75;61.90
64739;BME280;51175;51.186;0.276;2023-02-10T02:41:07;103271.75;;;8.75;61.78
64739;BME280;51175;51.186;0.276;2023-02-10T02:41:37;103272.59;;;8.76;61.78
64739;BME280;51175;51.186;0.276;2023-02-10T02:42:15;103271.75;;;8.75;61.68
64739;BME280;51175;51.186;0.276;2023-02-10T02:42:46;103281.50;;;8.75;61.82
64739;BME280;51175;51.186;0.276;2023-02-10T02:43:18;103276.22;;;8.75;61.82
64739;BME280;51175;51.186;0.276;2023-02-10T02:43:49;103282.28;;;8.75;61.64
64739;BME280;51175;51.186;0.276;2023-02-10T02:44:19;103273.59;;;8.75;61.68
64739;BME280;51175;51.186;0.276;2023-02-10T02:44:55;103280.66;;;8.74;61.74
64739;BME280;51175;51.186;0.276;2023-02-10T02:49:56;103273.94;;;8.72;61.71
64739;BME280;51175;51.186;0.276;2023-02-10T02:50:35;103286.13;;;8.73;61.50
64739;BME280;51175;51.186;0.276;2023-02-10T02:54:00;103288.09;;;8.71;61.51
64739;BME280;51175;51.186;0.276;2023-02-10T02:55:21;103285.47;;;8.71;61.37
64739;BME280;51175;51.186;0.276;2023-02-10T02:57:48;103285.47;;;8.71;61.51
64739;BME280;51175;51.186;0.276;2023-02-10T02:59:04;103295.22;;;8.70;61.37
64739;BME280;51175;51.186;0.276;2023-02-10T03:00:07;103292.56;;;8.70;61.47
64739;BME280;51175;51.186;0.276;2023-02-10T03:00:41;103289.28;;;8.68;61.26
64739;BME280;51175;51.186;0.276;2023-02-10T03:01:19;103301.28;;;8.71;61.26
64739;BME280;51175;51.186;0.276;2023-02-10T03:01:59;103297.00;;;8.69;61.22
64739;BME280;51175;51.186;0.276;2023-02-10T03:02:32;103292.56;;;8.70;61.30
64739;BME280;51175;51.186;0.276;2023-02-10T03:03:05;103292.75;;;8.68;61.17
64739;BME280;51175;51.186;0.276;2023-02-10T03:03:36;103287.47;;;8.68;61.26
64739;BME280;51175;51.186;0.276;2023-02-10T03:04:07;103295.38;;;8.68;61.01
64739;BME280;51175;51.186;0.276;2023-02-10T03:04:38;103292.75;;;8.68;61.23
64739;BME280;51175;51.186;0.276;2023-02-10T03:05:09;103291.91;;;8.68;61.15
64739;BME280;51175;51.186;0.276;2023-02-10T03:05:40;103291.91;;;8.68;61.16
64739;BME280;51175;51.186;0.276;2023-02-10T03:06:10;103294.38;;;8.69;61.04
64739;BME280;51175;51.186;0.276;2023-02-10T03:06:41;103290.91;;;8.69;61.06
64739;BME280;51175;51.186;0.276;2023-02-10T03:07:11;103295.22;;;8.70;61.18
64739;BME280;51175;51.186;0.276;2023-02-10T03:07:42;103298.63;;;8.71;60.98
64739;BME280;51175;51.186;0.276;2023-02-10T03:08:12;103289.94;;;8.70;60.98
64739;BME280;51175;51.186;0.276;2023-02-10T03:08:42;103289.75;;;8.72;61.02
64739;BME280;51175;51.186;0.276;2023-02-10T03:09:13;103294.03;;;8.73;60.81
64739;BME280;51175;51.186;0.276;2023-02-10T03:09:44;103289.75;;;8.72;60.80
64739;BME280;51175;51.186;0.276;2023-02-10T03:10:15;103293.19;;;8.72;60.94
64739;BME280;51175;51.186;0.276;2023-02-10T03:10:45;103289.09;;;8.69;60.97
64739;BME280;51175;51.186;0.276;2023-02-10T03:11:16;103289.94;;;8.70;60.92
64739;BME280;51175;51.186;0.276;2023-02-10T03:11:47;103294.56;;;8.68;60.83
64739;BME280;51175;51.186;0.276;2023-02-10T03:12:17;103290.13;;;8.68;60.92
64739;BME280;51175;51.186;0.276;2023-02-10T03:12:48;103298.03;;;8.68;60.86
64739;BME280;51175;51.186;0.276;2023-02-10T03:13:18;103297.84;;;8.70;60.92
64739;BME280;51175;51.186;0.276;2023-02-10T03:13:49;103294.19;;;8.71;60.94
64739;BME280;51175;51.186;0.276;2023-02-10T03:14:19;103292.56;;;8.70;60.80
64739;BME280;51175;51.186;0.276;2023-02-10T03:14:49;103290.72;;;8.71;60.76
64739;BME280;51175;51.186;0.276;2023-02-10T03:15:20;103292.41;;;8.72;60.87